88FL weather

Sailfish Point Heliport
Sewall's Point, Florida, United States

Public forecast

Using degrees Fahrenheit for public forecast. Weather courtesy of forecast.io.

METAR (pilot weather report)

Closest report is Witham Field, 3.5 nm (6.5 km) WNW. Retrieved 2019/06/25 13:50 UTC (1 hour ago):

KSUA 251350Z 34005KT 5SM HZ SKC 30/25 A3008

TAF (pilot weather forecast)

Forecast is more than 6 hours old.

Closest forecast is Witham Field, 3.5 nm (6.5 km) WNW. Retrieved 2019/06/25 06:24 UTC (9 hours ago):

TAF KSUA 250520Z 2506/2606 20003KT P6SM FEW250 FM251400 29006KT P6SM SCT030 SCT250 FM251730 07009KT P6SM SCT035 FM260200 23003KT P6SM BKN050 BKN250